sensor_id;sensor_type;location;lat;lon;timestamp;P1;durP1;ratioP1;P2;durP2;ratioP2
28766;SDS011;15921;52.034;20.650;2023-11-21T00:00:12;46.97;;;17.67;;
28766;SDS011;15921;52.034;20.650;2023-11-21T00:02:40;47.20;;;18.73;;
28766;SDS011;15921;52.034;20.650;2023-11-21T00:05:07;39.25;;;17.27;;
28766;SDS011;15921;52.034;20.650;2023-11-21T00:07:39;45.85;;;18.70;;
28766;SDS011;15921;52.034;20.650;2023-11-21T00:10:05;79.88;;;27.85;;
28766;SDS011;15921;52.034;20.650;2023-11-21T00:12:33;48.38;;;18.55;;
28766;SDS011;15921;52.034;20.650;2023-11-21T00:15:03;96.20;;;31.20;;
28766;SDS011;15921;52.034;20.650;2023-11-21T00:17:35;90.75;;;29.45;;
28766;SDS011;15921;52.034;20.650;2023-11-21T00:20:02;50.47;;;19.58;;
28766;SDS011;15921;52.034;20.650;2023-11-21T00:22:31;114.38;;;36.65;;
28766;SDS011;15921;52.034;20.650;2023-11-21T00:24:57;61.10;;;20.50;;
28766;SDS011;15921;52.034;20.650;2023-11-21T00:27:23;90.07;;;29.42;;
28766;SDS011;15921;52.034;20.650;2023-11-21T00:29:48;49.22;;;19.02;;
28766;SDS011;15921;52.034;20.650;2023-11-21T00:32:14;43.08;;;16.95;;
28766;SDS011;15921;52.034;20.650;2023-11-21T00:34:40;46.70;;;15.70;;
28766;SDS011;15921;52.034;20.650;2023-11-21T00:37:06;33.25;;;13.70;;
28766;SDS011;15921;52.034;20.650;2023-11-21T00:39:32;33.72;;;16.25;;
28766;SDS011;15921;52.034;20.650;2023-11-21T00:42:00;40.03;;;15.95;;
28766;SDS011;15921;52.034;20.650;2023-11-21T00:44:26;37.67;;;15.20;;
28766;SDS011;15921;52.034;20.650;2023-11-21T00:46:51;35.83;;;14.63;;
28766;SDS011;15921;52.034;20.650;2023-11-21T00:49:17;36.78;;;15.48;;
28766;SDS011;15921;52.034;20.650;2023-11-21T00:51:43;33.10;;;13.30;;
28766;SDS011;15921;52.034;20.650;2023-11-21T00:54:08;35.58;;;15.45;;
28766;SDS011;15921;52.034;20.650;2023-11-21T00:56:34;35.38;;;14.60;;
28766;SDS011;15921;52.034;20.650;2023-11-21T00:58:59;34.60;;;15.73;;
28766;SDS011;15921;52.034;20.650;2023-11-21T01:01:25;30.83;;;14.00;;
28766;SDS011;15921;52.034;20.650;2023-11-21T01:03:51;33.25;;;14.40;;
28766;SDS011;15921;52.034;20.650;2023-11-21T01:06:17;37.58;;;14.40;;
28766;SDS011;15921;52.034;20.650;2023-11-21T01:08:43;31.98;;;14.93;;
28766;SDS011;15921;52.034;20.650;2023-11-21T01:11:09;35.97;;;14.50;;
28766;SDS011;15921;52.034;20.650;2023-11-21T01:13:37;36.45;;;14.75;;
28766;SDS011;15921;52.034;20.650;2023-11-21T01:16:07;36.83;;;16.42;;
28766;SDS011;15921;52.034;20.650;2023-11-21T01:18:34;35.50;;;15.40;;
28766;SDS011;15921;52.034;20.650;2023-11-21T01:21:00;33.50;;;15.80;;
28766;SDS011;15921;52.034;20.650;2023-11-21T01:23:26;33.45;;;15.20;;
28766;SDS011;15921;52.034;20.650;2023-11-21T01:25:52;33.83;;;15.82;;
28766;SDS011;15921;52.034;20.650;2023-11-21T01:28:18;40.35;;;15.45;;
28766;SDS011;15921;52.034;20.650;2023-11-21T01:30:45;34.65;;;16.73;;
28766;SDS011;15921;52.034;20.650;2023-11-21T01:33:11;38.75;;;16.02;;
28766;SDS011;15921;52.034;20.650;2023-11-21T01:35:37;60.08;;;17.02;;
28766;SDS011;15921;52.034;20.650;2023-11-21T01:38:02;35.67;;;15.02;;
28766;SDS011;15921;52.034;20.650;2023-11-21T01:40:29;32.45;;;15.75;;
28766;SDS011;15921;52.034;20.650;2023-11-21T01:42:55;44.40;;;16.88;;
28766;SDS011;15921;52.034;20.650;2023-11-21T01:45:21;35.40;;;15.85;;
28766;SDS011;15921;52.034;20.650;2023-11-21T01:47:47;29.63;;;14.23;;
28766;SDS011;15921;52.034;20.650;2023-11-21T01:50:14;38.22;;;15.82;;
28766;SDS011;15921;52.034;20.650;2023-11-21T01:52:42;27.70;;;13.95;;
28766;SDS011;15921;52.034;20.650;2023-11-21T01:55:09;37.13;;;14.70;;
28766;SDS011;15921;52.034;20.650;2023-11-21T01:57:37;30.75;;;14.35;;
28766;SDS011;15921;52.034;20.650;2023-11-21T02:00:05;42.10;;;16.23;;
28766;SDS011;15921;52.034;20.650;2023-11-21T02:02:46;35.17;;;13.18;;
28766;SDS011;15921;52.034;20.650;2023-11-21T02:05:14;30.67;;;14.80;;
28766;SDS011;15921;52.034;20.650;2023-11-21T02:07:42;33.45;;;14.57;;
28766;SDS011;15921;52.034;20.650;2023-11-21T02:10:12;33.10;;;14.57;;
28766;SDS011;15921;52.034;20.650;2023-11-21T02:12:40;37.88;;;16.00;;
28766;SDS011;15921;52.034;20.650;2023-11-21T02:15:07;41.67;;;15.98;;
28766;SDS011;15921;52.034;20.650;2023-11-21T02:17:41;34.83;;;15.20;;
28766;SDS011;15921;52.034;20.650;2023-11-21T02:20:11;33.30;;;14.05;;
28766;SDS011;15921;52.034;20.650;2023-11-21T02:22:40;39.75;;;15.82;;
28766;SDS011;15921;52.034;20.650;2023-11-21T02:25:07;35.42;;;15.70;;
28766;SDS011;15921;52.034;20.650;2023-11-21T02:27:33;42.70;;;17.15;;
28766;SDS011;15921;52.034;20.650;2023-11-21T02:29:59;39.70;;;16.63;;
28766;SDS011;15921;52.034;20.650;2023-11-21T02:32:26;39.72;;;16.95;;
28766;SDS011;15921;52.034;20.650;2023-11-21T02:34:52;58.72;;;18.00;;
28766;SDS011;15921;52.034;20.650;2023-11-21T02:37:20;35.33;;;17.17;;
28766;SDS011;15921;52.034;20.650;2023-11-21T02:39:46;41.38;;;17.20;;
28766;SDS011;15921;52.034;20.650;2023-11-21T02:42:12;44.38;;;18.00;;
28766;SDS011;15921;52.034;20.650;2023-11-21T02:44:38;40.40;;;17.25;;
28766;SDS011;15921;52.034;20.650;2023-11-21T02:47:03;48.30;;;19.05;;
28766;SDS011;15921;52.034;20.650;2023-11-21T02:49:29;42.00;;;17.42;;
28766;SDS011;15921;52.034;20.650;2023-11-21T02:51:56;51.53;;;18.40;;
28766;SDS011;15921;52.034;20.650;2023-11-21T02:54:21;53.90;;;19.50;;
28766;SDS011;15921;52.034;20.650;2023-11-21T02:56:47;47.67;;;19.33;;
28766;SDS011;15921;52.034;20.650;2023-11-21T02:59:14;64.22;;;19.92;;
28766;SDS011;15921;52.034;20.650;2023-11-21T03:01:40;47.58;;;19.95;;
28766;SDS011;15921;52.034;20.650;2023-11-21T03:04:06;57.70;;;21.20;;
28766;SDS011;15921;52.034;20.650;2023-11-21T03:06:32;59.85;;;22.35;;
28766;SDS011;15921;52.034;20.650;2023-11-21T03:08:58;56.20;;;22.00;;
28766;SDS011;15921;52.034;20.650;2023-11-21T03:11:24;76.00;;;27.85;;
28766;SDS011;15921;52.034;20.650;2023-11-21T03:13:50;75.57;;;31.05;;
28766;SDS011;15921;52.034;20.650;2023-11-21T03:16:16;75.20;;;28.02;;
28766;SDS011;15921;52.034;20.650;2023-11-21T03:18:42;68.03;;;25.75;;
28766;SDS011;15921;52.034;20.650;2023-11-21T03:21:08;64.57;;;24.88;;
28766;SDS011;15921;52.034;20.650;2023-11-21T03:23:34;65.35;;;27.20;;
28766;SDS011;15921;52.034;20.650;2023-11-21T03:26:00;58.50;;;24.05;;
28766;SDS011;15921;52.034;20.650;2023-11-21T03:28:26;54.15;;;21.73;;
28766;SDS011;15921;52.034;20.650;2023-11-21T03:30:53;50.03;;;20.17;;
28766;SDS011;15921;52.034;20.650;2023-11-21T03:33:19;42.55;;;19.65;;
28766;SDS011;15921;52.034;20.650;2023-11-21T03:35:45;42.10;;;18.77;;
28766;SDS011;15921;52.034;20.650;2023-11-21T03:38:11;45.88;;;19.08;;
28766;SDS011;15921;52.034;20.650;2023-11-21T03:40:37;47.20;;;19.63;;
28766;SDS011;15921;52.034;20.650;2023-11-21T03:43:04;49.08;;;19.95;;
28766;SDS011;15921;52.034;20.650;2023-11-21T03:45:31;44.47;;;18.63;;
28766;SDS011;15921;52.034;20.650;2023-11-21T03:47:57;48.33;;;19.10;;
28766;SDS011;15921;52.034;20.650;2023-11-21T03:50:22;46.97;;;20.08;;
28766;SDS011;15921;52.034;20.650;2023-11-21T03:52:48;50.53;;;21.23;;
28766;SDS011;15921;52.034;20.650;2023-11-21T03:55:14;46.90;;;18.63;;
28766;SDS011;15921;52.034;20.650;2023-11-21T03:57:40;36.80;;;16.33;;
28766;SDS011;15921;52.034;20.650;2023-11-21T04:00:06;41.22;;;18.00;;
28766;SDS011;15921;52.034;20.650;2023-11-21T04:02:34;40.55;;;18.02;;
28766;SDS011;15921;52.034;20.650;2023-11-21T04:05:00;42.17;;;18.35;;
28766;SDS011;15921;52.034;20.650;2023-11-21T04:07:25;38.47;;;17.15;;
28766;SDS011;15921;52.034;20.650;2023-11-21T04:09:52;39.55;;;19.13;;
28766;SDS011;15921;52.034;20.650;2023-11-21T04:12:18;43.20;;;18.30;;
28766;SDS011;15921;52.034;20.650;2023-11-21T04:14:44;46.17;;;19.08;;
28766;SDS011;15921;52.034;20.650;2023-11-21T04:17:10;43.38;;;19.15;;
28766;SDS011;15921;52.034;20.650;2023-11-21T04:19:36;45.10;;;18.80;;
28766;SDS011;15921;52.034;20.650;2023-11-21T04:22:01;45.35;;;19.60;;
28766;SDS011;15921;52.034;20.650;2023-11-21T04:24:27;45.83;;;20.52;;
28766;SDS011;15921;52.034;20.650;2023-11-21T04:26:53;47.67;;;21.58;;
28766;SDS011;15921;52.034;20.650;2023-11-21T04:29:18;46.67;;;21.05;;
28766;SDS011;15921;52.034;20.650;2023-11-21T04:31:44;45.78;;;20.00;;
28766;SDS011;15921;52.034;20.650;2023-11-21T04:34:09;46.03;;;21.67;;
28766;SDS011;15921;52.034;20.650;2023-11-21T04:36:35;45.05;;;20.10;;
28766;SDS011;15921;52.034;20.650;2023-11-21T04:39:01;47.63;;;19.20;;
28766;SDS011;15921;52.034;20.650;2023-11-21T04:41:27;43.50;;;18.58;;
28766;SDS011;15921;52.034;20.650;2023-11-21T04:43:52;42.30;;;18.20;;
28766;SDS011;15921;52.034;20.650;2023-11-21T04:46:18;46.42;;;19.70;;
28766;SDS011;15921;52.034;20.650;2023-11-21T04:48:44;38.53;;;18.95;;
28766;SDS011;15921;52.034;20.650;2023-11-21T04:51:09;39.05;;;17.60;;
28766;SDS011;15921;52.034;20.650;2023-11-21T04:53:37;37.90;;;17.35;;
28766;SDS011;15921;52.034;20.650;2023-11-21T04:56:04;34.08;;;15.52;;
28766;SDS011;15921;52.034;20.650;2023-11-21T04:58:30;35.25;;;16.08;;
28766;SDS011;15921;52.034;20.650;2023-11-21T05:00:57;39.08;;;16.92;;
28766;SDS011;15921;52.034;20.650;2023-11-21T05:03:22;35.08;;;15.85;;
28766;SDS011;15921;52.034;20.650;2023-11-21T05:05:48;32.92;;;16.60;;
28766;SDS011;15921;52.034;20.650;2023-11-21T05:08:14;29.83;;;15.45;;
28766;SDS011;15921;52.034;20.650;2023-11-21T05:10:40;27.42;;;14.20;;
28766;SDS011;15921;52.034;20.650;2023-11-21T05:13:06;31.33;;;14.45;;
28766;SDS011;15921;52.034;20.650;2023-11-21T05:15:35;29.00;;;14.82;;
28766;SDS011;15921;52.034;20.650;2023-11-21T05:18:02;29.20;;;15.27;;
28766;SDS011;15921;52.034;20.650;2023-11-21T05:20:28;26.25;;;13.80;;
28766;SDS011;15921;52.034;20.650;2023-11-21T05:22:54;27.98;;;13.70;;
28766;SDS011;15921;52.034;20.650;2023-11-21T05:25:19;34.20;;;15.68;;
28766;SDS011;15921;52.034;20.650;2023-11-21T05:27:45;27.65;;;13.82;;
28766;SDS011;15921;52.034;20.650;2023-11-21T05:30:12;28.75;;;13.40;;
28766;SDS011;15921;52.034;20.650;2023-11-21T05:32:39;29.50;;;14.40;;
28766;SDS011;15921;52.034;20.650;2023-11-21T05:35:09;27.48;;;13.63;;
28766;SDS011;15921;52.034;20.650;2023-11-21T05:37:40;34.83;;;14.30;;
28766;SDS011;15921;52.034;20.650;2023-11-21T05:40:06;28.88;;;13.82;;
28766;SDS011;15921;52.034;20.650;2023-11-21T05:42:33;27.67;;;14.05;;
28766;SDS011;15921;52.034;20.650;2023-11-21T05:45:00;28.80;;;13.75;;
28766;SDS011;15921;52.034;20.650;2023-11-21T05:47:39;26.85;;;13.57;;
28766;SDS011;15921;52.034;20.650;2023-11-21T05:50:07;23.80;;;12.70;;
28766;SDS011;15921;52.034;20.650;2023-11-21T05:52:39;29.80;;;14.13;;
28766;SDS011;15921;52.034;20.650;2023-11-21T05:55:07;29.60;;;13.40;;
28766;SDS011;15921;52.034;20.650;2023-11-21T05:57:34;31.38;;;13.80;;
28766;SDS011;15921;52.034;20.650;2023-11-21T06:00:03;27.90;;;14.15;;
28766;SDS011;15921;52.034;20.650;2023-11-21T06:02:41;28.95;;;13.95;;
28766;SDS011;15921;52.034;20.650;2023-11-21T06:05:07;36.95;;;15.32;;
28766;SDS011;15921;52.034;20.650;2023-11-21T06:07:33;31.35;;;15.25;;
28766;SDS011;15921;52.034;20.650;2023-11-21T06:09:59;30.90;;;15.07;;
28766;SDS011;15921;52.034;20.650;2023-11-21T06:12:24;32.03;;;15.40;;
28766;SDS011;15921;52.034;20.650;2023-11-21T06:14:50;30.65;;;15.18;;
28766;SDS011;15921;52.034;20.650;2023-11-21T06:17:16;29.13;;;15.15;;
28766;SDS011;15921;52.034;20.650;2023-11-21T06:19:43;29.30;;;14.05;;
28766;SDS011;15921;52.034;20.650;2023-11-21T06:22:10;30.60;;;14.48;;
28766;SDS011;15921;52.034;20.650;2023-11-21T06:24:36;28.35;;;14.25;;
28766;SDS011;15921;52.034;20.650;2023-11-21T06:27:03;33.00;;;15.23;;
28766;SDS011;15921;52.034;20.650;2023-11-21T06:29:30;31.10;;;13.55;;
28766;SDS011;15921;52.034;20.650;2023-11-21T06:31:57;26.88;;;12.82;;
28766;SDS011;15921;52.034;20.650;2023-11-21T06:34:23;28.10;;;14.48;;
28766;SDS011;15921;52.034;20.650;2023-11-21T06:36:49;22.13;;;12.13;;
28766;SDS011;15921;52.034;20.650;2023-11-21T06:39:14;25.98;;;13.00;;
28766;SDS011;15921;52.034;20.650;2023-11-21T06:41:42;30.52;;;13.32;;
28766;SDS011;15921;52.034;20.650;2023-11-21T06:44:08;24.83;;;12.68;;
28766;SDS011;15921;52.034;20.650;2023-11-21T06:46:34;27.45;;;13.25;;
28766;SDS011;15921;52.034;20.650;2023-11-21T06:48:59;30.60;;;13.80;;
28766;SDS011;15921;52.034;20.650;2023-11-21T06:51:25;27.48;;;13.93;;
28766;SDS011;15921;52.034;20.650;2023-11-21T06:53:51;27.17;;;13.60;;
28766;SDS011;15921;52.034;20.650;2023-11-21T06:56:17;29.08;;;14.38;;
28766;SDS011;15921;52.034;20.650;2023-11-21T06:58:44;30.33;;;13.43;;
28766;SDS011;15921;52.034;20.650;2023-11-21T07:01:11;29.58;;;13.95;;
28766;SDS011;15921;52.034;20.650;2023-11-21T07:03:37;32.17;;;14.77;;
28766;SDS011;15921;52.034;20.650;2023-11-21T07:06:03;38.40;;;18.02;;
28766;SDS011;15921;52.034;20.650;2023-11-21T07:08:29;38.85;;;18.42;;
28766;SDS011;15921;52.034;20.650;2023-11-21T07:10:55;34.80;;;17.15;;
28766;SDS011;15921;52.034;20.650;2023-11-21T07:13:20;31.95;;;16.13;;
28766;SDS011;15921;52.034;20.650;2023-11-21T07:15:46;31.70;;;14.80;;
28766;SDS011;15921;52.034;20.650;2023-11-21T07:18:13;29.38;;;14.77;;
28766;SDS011;15921;52.034;20.650;2023-11-21T07:20:39;32.40;;;14.63;;
28766;SDS011;15921;52.034;20.650;2023-11-21T07:23:04;35.42;;;16.02;;
28766;SDS011;15921;52.034;20.650;2023-11-21T07:25:31;31.85;;;15.98;;
28766;SDS011;15921;52.034;20.650;2023-11-21T07:27:59;29.83;;;14.32;;
28766;SDS011;15921;52.034;20.650;2023-11-21T07:30:25;28.92;;;14.82;;
28766;SDS011;15921;52.034;20.650;2023-11-21T07:32:52;28.80;;;14.45;;
28766;SDS011;15921;52.034;20.650;2023-11-21T07:35:17;28.35;;;14.02;;
28766;SDS011;15921;52.034;20.650;2023-11-21T07:37:43;30.40;;;14.50;;
28766;SDS011;15921;52.034;20.650;2023-11-21T07:40:09;27.17;;;13.57;;
28766;SDS011;15921;52.034;20.650;2023-11-21T07:42:36;24.73;;;12.88;;
28766;SDS011;15921;52.034;20.650;2023-11-21T07:45:04;24.58;;;12.57;;
28766;SDS011;15921;52.034;20.650;2023-11-21T07:47:32;25.42;;;13.32;;
28766;SDS011;15921;52.034;20.650;2023-11-21T07:49:59;26.38;;;14.63;;
28766;SDS011;15921;52.034;20.650;2023-11-21T07:52:25;30.83;;;13.13;;
28766;SDS011;15921;52.034;20.650;2023-11-21T07:54:51;25.63;;;12.90;;
28766;SDS011;15921;52.034;20.650;2023-11-21T07:57:16;25.00;;;13.07;;
28766;SDS011;15921;52.034;20.650;2023-11-21T07:59:43;26.63;;;13.77;;
28766;SDS011;15921;52.034;20.650;2023-11-21T08:02:08;24.17;;;11.90;;
28766;SDS011;15921;52.034;20.650;2023-11-21T08:04:34;24.25;;;12.27;;
28766;SDS011;15921;52.034;20.650;2023-11-21T08:07:00;21.95;;;11.23;;
28766;SDS011;15921;52.034;20.650;2023-11-21T08:09:27;19.52;;;10.18;;
28766;SDS011;15921;52.034;20.650;2023-11-21T08:11:52;19.63;;;9.80;;
28766;SDS011;15921;52.034;20.650;2023-11-21T08:14:18;21.70;;;10.73;;
28766;SDS011;15921;52.034;20.650;2023-11-21T08:16:45;21.40;;;9.98;;
28766;SDS011;15921;52.034;20.650;2023-11-21T08:19:11;19.48;;;10.15;;
28766;SDS011;15921;52.034;20.650;2023-11-21T08:21:37;21.23;;;10.45;;
28766;SDS011;15921;52.034;20.650;2023-11-21T08:24:04;23.27;;;11.35;;
28766;SDS011;15921;52.034;20.650;2023-11-21T08:26:31;18.80;;;10.45;;
28766;SDS011;15921;52.034;20.650;2023-11-21T08:28:57;18.02;;;9.98;;
28766;SDS011;15921;52.034;20.650;2023-11-21T08:31:25;22.10;;;11.43;;
28766;SDS011;15921;52.034;20.650;2023-11-21T08:33:51;19.38;;;10.43;;
28766;SDS011;15921;52.034;20.650;2023-11-21T08:36:20;19.98;;;10.90;;
28766;SDS011;15921;52.034;20.650;2023-11-21T08:38:49;22.90;;;11.38;;
28766;SDS011;15921;52.034;20.650;2023-11-21T08:41:17;20.40;;;10.48;;
28766;SDS011;15921;52.034;20.650;2023-11-21T08:43:52;23.33;;;12.65;;
28766;SDS011;15921;52.034;20.650;2023-11-21T08:46:20;19.80;;;10.57;;
28766;SDS011;15921;52.034;20.650;2023-11-21T08:48:45;21.02;;;10.77;;
28766;SDS011;15921;52.034;20.650;2023-11-21T08:51:11;18.80;;;10.07;;
28766;SDS011;15921;52.034;20.650;2023-11-21T08:53:37;20.38;;;10.45;;
28766;SDS011;15921;52.034;20.650;2023-11-21T08:56:03;25.88;;;11.27;;
28766;SDS011;15921;52.034;20.650;2023-11-21T08:58:30;20.55;;;9.77;;
28766;SDS011;15921;52.034;20.650;2023-11-21T09:00:57;22.85;;;10.90;;
28766;SDS011;15921;52.034;20.650;2023-11-21T09:03:23;19.90;;;9.95;;
28766;SDS011;15921;52.034;20.650;2023-11-21T09:05:50;18.80;;;10.40;;
28766;SDS011;15921;52.034;20.650;2023-11-21T09:08:16;18.95;;;9.50;;
28766;SDS011;15921;52.034;20.650;2023-11-21T09:10:42;19.85;;;10.15;;
28766;SDS011;15921;52.034;20.650;2023-11-21T09:13:10;19.35;;;10.90;;
28766;SDS011;15921;52.034;20.650;2023-11-21T09:15:35;19.55;;;10.40;;
28766;SDS011;15921;52.034;20.650;2023-11-21T09:18:01;18.50;;;9.77;;
28766;SDS011;15921;52.034;20.650;2023-11-21T09:20:27;22.85;;;11.20;;
28766;SDS011;15921;52.034;20.650;2023-11-21T09:22:53;22.00;;;11.65;;
28766;SDS011;15921;52.034;20.650;2023-11-21T09:25:20;24.38;;;11.10;;
28766;SDS011;15921;52.034;20.650;2023-11-21T09:27:46;23.52;;;10.85;;
28766;SDS011;15921;52.034;20.650;2023-11-21T09:30:12;21.80;;;11.35;;
28766;SDS011;15921;52.034;20.650;2023-11-21T09:32:39;22.08;;;11.77;;
28766;SDS011;15921;52.034;20.650;2023-11-21T09:35:05;16.77;;;9.63;;
28766;SDS011;15921;52.034;20.650;2023-11-21T09:37:33;16.92;;;9.68;;
28766;SDS011;15921;52.034;20.650;2023-11-21T09:39:59;16.60;;;9.30;;
28766;SDS011;15921;52.034;20.650;2023-11-21T09:42:38;18.10;;;9.73;;
28766;SDS011;15921;52.034;20.650;2023-11-21T09:45:10;17.63;;;9.85;;
28766;SDS011;15921;52.034;20.650;2023-11-21T09:47:53;21.42;;;10.57;;
28766;SDS011;15921;52.034;20.650;2023-11-21T09:50:20;22.98;;;11.10;;
28766;SDS011;15921;52.034;20.650;2023-11-21T09:55:20;18.05;;;10.23;;
28766;SDS011;15921;52.034;20.650;2023-11-21T09:57:50;20.65;;;10.65;;
28766;SDS011;15921;52.034;20.650;2023-11-21T10:00:16;21.75;;;11.45;;
28766;SDS011;15921;52.034;20.650;2023-11-21T10:02:43;18.95;;;10.52;;
28766;SDS011;15921;52.034;20.650;2023-11-21T10:05:09;19.73;;;10.50;;
28766;SDS011;15921;52.034;20.650;2023-11-21T10:07:36;23.67;;;11.43;;
28766;SDS011;15921;52.034;20.650;2023-11-21T10:10:04;20.45;;;11.25;;
28766;SDS011;15921;52.034;20.650;2023-11-21T10:12:30;20.67;;;11.18;;
28766;SDS011;15921;52.034;20.650;2023-11-21T10:14:58;21.13;;;11.48;;
28766;SDS011;15921;52.034;20.650;2023-11-21T10:17:25;23.63;;;13.07;;
28766;SDS011;15921;52.034;20.650;2023-11-21T10:19:56;20.95;;;11.98;;
28766;SDS011;15921;52.034;20.650;2023-11-21T10:22:22;22.80;;;11.23;;
28766;SDS011;15921;52.034;20.650;2023-11-21T10:24:49;22.77;;;10.98;;
28766;SDS011;15921;52.034;20.650;2023-11-21T10:27:14;25.48;;;12.20;;
28766;SDS011;15921;52.034;20.650;2023-11-21T10:29:40;20.02;;;11.57;;
28766;SDS011;15921;52.034;20.650;2023-11-21T10:32:07;21.48;;;11.77;;
28766;SDS011;15921;52.034;20.650;2023-11-21T10:34:32;24.02;;;11.90;;
28766;SDS011;15921;52.034;20.650;2023-11-21T10:36:59;20.55;;;11.57;;
28766;SDS011;15921;52.034;20.650;2023-11-21T10:39:36;18.55;;;10.57;;
28766;SDS011;15921;52.034;20.650;2023-11-21T10:42:03;28.33;;;13.45;;
28766;SDS011;15921;52.034;20.650;2023-11-21T10:44:29;24.88;;;13.05;;
28766;SDS011;15921;52.034;20.650;2023-11-21T10:46:55;26.75;;;13.30;;
28766;SDS011;15921;52.034;20.650;2023-11-21T10:49:25;23.73;;;13.75;;
28766;SDS011;15921;52.034;20.650;2023-11-21T10:51:52;24.52;;;13.18;;
28766;SDS011;15921;52.034;20.650;2023-11-21T10:54:19;27.33;;;14.07;;
28766;SDS011;15921;52.034;20.650;2023-11-21T10:56:46;28.15;;;14.07;;
28766;SDS011;15921;52.034;20.650;2023-11-21T10:59:16;26.52;;;12.95;;
28766;SDS011;15921;52.034;20.650;2023-11-21T11:01:44;31.60;;;14.35;;
28766;SDS011;15921;52.034;20.650;2023-11-21T11:04:11;29.45;;;14.25;;
28766;SDS011;15921;52.034;20.650;2023-11-21T11:06:44;32.42;;;14.52;;
28766;SDS011;15921;52.034;20.650;2023-11-21T11:09:16;25.60;;;14.05;;
28766;SDS011;15921;52.034;20.650;2023-11-21T11:11:42;27.25;;;13.93;;
28766;SDS011;15921;52.034;20.650;2023-11-21T11:14:11;30.83;;;15.48;;
28766;SDS011;15921;52.034;20.650;2023-11-21T11:16:41;28.80;;;14.65;;
28766;SDS011;15921;52.034;20.650;2023-11-21T11:19:08;32.75;;;14.85;;
28766;SDS011;15921;52.034;20.650;2023-11-21T11:24:41;27.55;;;14.55;;
28766;SDS011;15921;52.034;20.650;2023-11-21T11:27:33;33.92;;;15.85;;
28766;SDS011;15921;52.034;20.650;2023-11-21T11:30:06;27.63;;;12.85;;
28766;SDS011;15921;52.034;20.650;2023-11-21T11:32:43;27.48;;;14.25;;
28766;SDS011;15921;52.034;20.650;2023-11-21T11:37:41;25.85;;;13.63;;
28766;SDS011;15921;52.034;20.650;2023-11-21T11:40:10;30.42;;;15.65;;
28766;SDS011;15921;52.034;20.650;2023-11-21T11:42:36;26.77;;;14.60;;
28766;SDS011;15921;52.034;20.650;2023-11-21T11:45:05;29.98;;;14.65;;
28766;SDS011;15921;52.034;20.650;2023-11-21T11:47:43;27.70;;;14.60;;
28766;SDS011;15921;52.034;20.650;2023-11-21T11:50:12;24.65;;;14.18;;
28766;SDS011;15921;52.034;20.650;2023-11-21T11:55:11;29.55;;;14.13;;
28766;SDS011;15921;52.034;20.650;2023-11-21T11:57:39;41.08;;;18.70;;
28766;SDS011;15921;52.034;20.650;2023-11-21T12:02:54;45.38;;;19.73;;
28766;SDS011;15921;52.034;20.650;2023-11-21T12:05:28;31.08;;;15.95;;
28766;SDS011;15921;52.034;20.650;2023-11-21T12:07:55;32.20;;;16.20;;
28766;SDS011;15921;52.034;20.650;2023-11-21T12:10:23;31.65;;;16.42;;
28766;SDS011;15921;52.034;20.650;2023-11-21T12:13:00;29.55;;;14.63;;
28766;SDS011;15921;52.034;20.650;2023-11-21T12:15:28;32.90;;;16.38;;
28766;SDS011;15921;52.034;20.650;2023-11-21T12:17:56;33.08;;;15.57;;
28766;SDS011;15921;52.034;20.650;2023-11-21T12:20:22;34.15;;;14.45;;
28766;SDS011;15921;52.034;20.650;2023-11-21T12:22:50;33.83;;;14.98;;
28766;SDS011;15921;52.034;20.650;2023-11-21T12:25:17;35.88;;;16.02;;
28766;SDS011;15921;52.034;20.650;2023-11-21T12:27:47;32.25;;;15.77;;
28766;SDS011;15921;52.034;20.650;2023-11-21T12:30:15;37.33;;;18.05;;
28766;SDS011;15921;52.034;20.650;2023-11-21T12:32:42;31.58;;;15.23;;
28766;SDS011;15921;52.034;20.650;2023-11-21T12:35:11;32.63;;;15.23;;
28766;SDS011;15921;52.034;20.650;2023-11-21T12:37:41;29.08;;;15.10;;
28766;SDS011;15921;52.034;20.650;2023-11-21T12:42:47;30.48;;;15.18;;
28766;SDS011;15921;52.034;20.650;2023-11-21T12:48:15;26.70;;;14.55;;
28766;SDS011;15921;52.034;20.650;2023-11-21T12:50:36;35.47;;;17.67;;
28766;SDS011;15921;52.034;20.650;2023-11-21T12:55:31;36.10;;;17.27;;
28766;SDS011;15921;52.034;20.650;2023-11-21T12:57:57;32.75;;;17.15;;
28766;SDS011;15921;52.034;20.650;2023-11-21T13:00:35;36.85;;;16.35;;
28766;SDS011;15921;52.034;20.650;2023-11-21T13:03:03;35.15;;;16.48;;
28766;SDS011;15921;52.034;20.650;2023-11-21T13:05:33;35.80;;;16.30;;
28766;SDS011;15921;52.034;20.650;2023-11-21T13:08:03;30.95;;;15.52;;
28766;SDS011;15921;52.034;20.650;2023-11-21T13:10:32;38.08;;;17.20;;
28766;SDS011;15921;52.034;20.650;2023-11-21T13:13:05;37.85;;;16.63;;
28766;SDS011;15921;52.034;20.650;2023-11-21T13:18:01;33.70;;;16.75;;
28766;SDS011;15921;52.034;20.650;2023-11-21T13:20:27;35.13;;;16.75;;
28766;SDS011;15921;52.034;20.650;2023-11-21T13:22:55;36.22;;;17.25;;
28766;SDS011;15921;52.034;20.650;2023-11-21T13:25:24;30.48;;;15.93;;
28766;SDS011;15921;52.034;20.650;2023-11-21T13:27:54;32.17;;;16.75;;
28766;SDS011;15921;52.034;20.650;2023-11-21T13:30:20;31.80;;;16.00;;
28766;SDS011;15921;52.034;20.650;2023-11-21T13:32:51;35.88;;;17.10;;
28766;SDS011;15921;52.034;20.650;2023-11-21T13:35:18;36.00;;;17.00;;
28766;SDS011;15921;52.034;20.650;2023-11-21T13:37:56;42.25;;;17.40;;
28766;SDS011;15921;52.034;20.650;2023-11-21T13:40:25;31.23;;;16.10;;
28766;SDS011;15921;52.034;20.650;2023-11-21T13:42:54;33.75;;;17.05;;
28766;SDS011;15921;52.034;20.650;2023-11-21T13:45:25;36.47;;;17.67;;
28766;SDS011;15921;52.034;20.650;2023-11-21T13:47:53;33.63;;;15.82;;
28766;SDS011;15921;52.034;20.650;2023-11-21T13:50:30;37.13;;;17.90;;
28766;SDS011;15921;52.034;20.650;2023-11-21T13:53:02;30.88;;;16.52;;
28766;SDS011;15921;52.034;20.650;2023-11-21T13:55:35;32.58;;;16.95;;
28766;SDS011;15921;52.034;20.650;2023-11-21T13:58:02;40.90;;;17.30;;
28766;SDS011;15921;52.034;20.650;2023-11-21T14:00:29;31.38;;;16.13;;
28766;SDS011;15921;52.034;20.650;2023-11-21T14:03:21;35.90;;;17.38;;
28766;SDS011;15921;52.034;20.650;2023-11-21T14:05:48;32.95;;;16.73;;
28766;SDS011;15921;52.034;20.650;2023-11-21T14:08:22;36.08;;;17.88;;
28766;SDS011;15921;52.034;20.650;2023-11-21T14:10:53;38.78;;;17.85;;
28766;SDS011;15921;52.034;20.650;2023-11-21T14:13:24;34.72;;;17.45;;
28766;SDS011;15921;52.034;20.650;2023-11-21T14:15:53;34.42;;;16.58;;
28766;SDS011;15921;52.034;20.650;2023-11-21T14:18:25;39.03;;;19.02;;
28766;SDS011;15921;52.034;20.650;2023-11-21T14:21:15;39.15;;;18.98;;
28766;SDS011;15921;52.034;20.650;2023-11-21T14:23:41;46.42;;;22.15;;
28766;SDS011;15921;52.034;20.650;2023-11-21T14:26:08;42.47;;;19.88;;
28766;SDS011;15921;52.034;20.650;2023-11-21T14:28:33;41.33;;;20.10;;
28766;SDS011;15921;52.034;20.650;2023-11-21T14:31:01;42.88;;;19.77;;
28766;SDS011;15921;52.034;20.650;2023-11-21T14:33:28;41.75;;;18.40;;